sensor_id;sensor_type;location;lat;lon;timestamp;P1;durP1;ratioP1;P2;durP2;ratioP2
60426;SDS011;46274;47.168;27.604;2022-09-17T01:32:08;12.33;;;6.60;;
60426;SDS011;46274;47.168;27.604;2022-09-17T05:36:31;11.43;;;5.77;;
60426;SDS011;46274;47.168;27.604;2022-09-17T05:55:54;5.70;;;4.00;;
60426;SDS011;46274;47.168;27.604;2022-09-17T06:27:42;9.57;;;4.97;;
60426;SDS011;46274;47.168;27.604;2022-09-17T07:12:52;6.23;;;4.37;;
60426;SDS011;46274;47.168;27.604;2022-09-17T07:19:29;4.77;;;3.00;;
60426;SDS011;46274;47.168;27.604;2022-09-17T07:25:32;6.10;;;4.20;;
60426;SDS011;46274;47.168;27.604;2022-09-17T07:31:34;9.77;;;4.30;;
60426;SDS011;46274;47.168;27.604;2022-09-17T07:37:56;6.77;;;4.40;;
60426;SDS011;46274;47.168;27.604;2022-09-17T07:43:57;6.67;;;3.80;;
60426;SDS011;46274;47.168;27.604;2022-09-17T07:50:02;9.80;;;4.07;;
60426;SDS011;46274;47.168;27.604;2022-09-17T08:02:38;10.43;;;5.30;;
60426;SDS011;46274;47.168;27.604;2022-09-17T08:15:31;10.83;;;5.23;;
60426;SDS011;46274;47.168;27.604;2022-09-17T08:21:33;11.83;;;5.40;;
60426;SDS011;46274;47.168;27.604;2022-09-17T08:27:35;13.77;;;5.87;;
60426;SDS011;46274;47.168;27.604;2022-09-17T08:33:40;9.07;;;4.67;;
60426;SDS011;46274;47.168;27.604;2022-09-17T08:39:42;7.00;;;4.80;;
60426;SDS011;46274;47.168;27.604;2022-09-17T09:23:29;9.95;;;5.10;;
60426;SDS011;46274;47.168;27.604;2022-09-17T09:30:03;10.90;;;4.60;;
60426;SDS011;46274;47.168;27.604;2022-09-17T09:36:12;7.60;;;4.63;;
60426;SDS011;46274;47.168;27.604;2022-09-17T09:42:26;9.57;;;4.63;;
60426;SDS011;46274;47.168;27.604;2022-09-17T10:01:27;13.23;;;5.90;;
60426;SDS011;46274;47.168;27.604;2022-09-17T10:07:32;15.50;;;6.93;;
60426;SDS011;46274;47.168;27.604;2022-09-17T10:13:45;8.40;;;5.70;;
60426;SDS011;46274;47.168;27.604;2022-09-17T10:39:29;12.93;;;6.20;;
60426;SDS011;46274;47.168;27.604;2022-09-17T10:45:45;13.27;;;8.00;;
60426;SDS011;46274;47.168;27.604;2022-09-17T10:58:53;9.37;;;5.47;;
60426;SDS011;46274;47.168;27.604;2022-09-17T11:05:27;11.07;;;6.27;;
60426;SDS011;46274;47.168;27.604;2022-09-17T11:24:47;11.87;;;5.83;;
60426;SDS011;46274;47.168;27.604;2022-09-17T11:31:13;13.67;;;6.70;;
60426;SDS011;46274;47.168;27.604;2022-09-17T11:43:46;11.30;;;6.57;;
60426;SDS011;46274;47.168;27.604;2022-09-17T11:50:18;10.87;;;6.37;;
60426;SDS011;46274;47.168;27.604;2022-09-17T11:56:44;9.60;;;6.40;;
60426;SDS011;46274;47.168;27.604;2022-09-17T12:09:23;15.23;;;7.77;;
60426;SDS011;46274;47.168;27.604;2022-09-17T12:15:54;9.60;;;5.53;;
60426;SDS011;46274;47.168;27.604;2022-09-17T12:22:22;10.23;;;6.10;;
60426;SDS011;46274;47.168;27.604;2022-09-17T12:28:30;11.27;;;7.00;;
60426;SDS011;46274;47.168;27.604;2022-09-17T12:41:19;11.73;;;5.90;;
60426;SDS011;46274;47.168;27.604;2022-09-17T13:00:43;10.47;;;6.27;;
60426;SDS011;46274;47.168;27.604;2022-09-17T13:19:42;9.67;;;6.83;;
60426;SDS011;46274;47.168;27.604;2022-09-17T13:25:53;9.40;;;5.60;;
60426;SDS011;46274;47.168;27.604;2022-09-17T13:31:54;11.80;;;7.47;;
60426;SDS011;46274;47.168;27.604;2022-09-17T13:37:57;11.47;;;6.27;;
60426;SDS011;46274;47.168;27.604;2022-09-17T13:44:00;10.90;;;7.57;;
60426;SDS011;46274;47.168;27.604;2022-09-17T13:50:09;9.73;;;6.90;;
60426;SDS011;46274;47.168;27.604;2022-09-17T13:56:36;11.80;;;6.20;;
60426;SDS011;46274;47.168;27.604;2022-09-17T14:02:43;8.70;;;6.20;;
60426;SDS011;46274;47.168;27.604;2022-09-17T14:14:50;10.00;;;5.80;;
60426;SDS011;46274;47.168;27.604;2022-09-17T14:20:53;9.93;;;6.10;;
60426;SDS011;46274;47.168;27.604;2022-09-17T14:33:14;12.03;;;7.07;;
60426;SDS011;46274;47.168;27.604;2022-09-17T14:39:23;9.20;;;5.30;;
60426;SDS011;46274;47.168;27.604;2022-09-17T14:45:30;6.27;;;4.17;;
60426;SDS011;46274;47.168;27.604;2022-09-17T14:51:38;7.07;;;4.00;;
60426;SDS011;46274;47.168;27.604;2022-09-17T14:57:41;6.43;;;4.20;;
60426;SDS011;46274;47.168;27.604;2022-09-17T15:03:44;7.13;;;4.30;;
60426;SDS011;46274;47.168;27.604;2022-09-17T15:09:47;6.93;;;4.00;;
60426;SDS011;46274;47.168;27.604;2022-09-17T15:15:53;5.73;;;3.37;;
60426;SDS011;46274;47.168;27.604;2022-09-17T15:21:59;5.83;;;2.87;;
60426;SDS011;46274;47.168;27.604;2022-09-17T15:28:12;7.37;;;3.43;;
60426;SDS011;46274;47.168;27.604;2022-09-17T15:34:29;7.63;;;3.97;;
60426;SDS011;46274;47.168;27.604;2022-09-17T15:40:32;5.40;;;3.10;;
60426;SDS011;46274;47.168;27.604;2022-09-17T15:46:38;7.77;;;4.07;;
60426;SDS011;46274;47.168;27.604;2022-09-17T15:52:40;6.23;;;3.73;;
60426;SDS011;46274;47.168;27.604;2022-09-17T16:04:47;6.93;;;3.87;;
60426;SDS011;46274;47.168;27.604;2022-09-17T16:10:53;5.63;;;3.10;;
60426;SDS011;46274;47.168;27.604;2022-09-17T16:16:54;5.83;;;3.20;;
60426;SDS011;46274;47.168;27.604;2022-09-17T16:22:56;6.93;;;3.77;;
60426;SDS011;46274;47.168;27.604;2022-09-17T16:29:09;9.27;;;4.10;;
60426;SDS011;46274;47.168;27.604;2022-09-17T16:35:16;6.97;;;3.90;;
60426;SDS011;46274;47.168;27.604;2022-09-17T16:41:19;6.17;;;3.87;;
60426;SDS011;46274;47.168;27.604;2022-09-17T16:47:21;9.30;;;4.27;;
60426;SDS011;46274;47.168;27.604;2022-09-17T16:53:23;6.63;;;4.00;;
60426;SDS011;46274;47.168;27.604;2022-09-17T16:59:25;6.73;;;4.23;;
60426;SDS011;46274;47.168;27.604;2022-09-17T17:05:28;12.23;;;4.33;;
60426;SDS011;46274;47.168;27.604;2022-09-17T17:11:31;7.20;;;3.37;;
60426;SDS011;46274;47.168;27.604;2022-09-17T17:17:32;8.47;;;4.43;;
60426;SDS011;46274;47.168;27.604;2022-09-17T17:23:36;5.50;;;3.60;;
60426;SDS011;46274;47.168;27.604;2022-09-17T17:29:38;5.43;;;3.23;;
60426;SDS011;46274;47.168;27.604;2022-09-17T17:35:40;7.37;;;4.57;;
60426;SDS011;46274;47.168;27.604;2022-09-17T17:41:42;11.17;;;4.13;;
60426;SDS011;46274;47.168;27.604;2022-09-17T17:47:51;4.67;;;3.17;;
60426;SDS011;46274;47.168;27.604;2022-09-17T17:53:53;9.50;;;3.77;;
60426;SDS011;46274;47.168;27.604;2022-09-17T17:59:55;3.80;;;2.17;;
60426;SDS011;46274;47.168;27.604;2022-09-17T18:05:57;3.73;;;2.60;;
60426;SDS011;46274;47.168;27.604;2022-09-17T18:12:00;4.10;;;3.23;;
60426;SDS011;46274;47.168;27.604;2022-09-17T18:18:02;4.47;;;2.37;;
60426;SDS011;46274;47.168;27.604;2022-09-17T18:24:06;4.33;;;2.83;;
60426;SDS011;46274;47.168;27.604;2022-09-17T18:30:09;3.00;;;2.10;;
60426;SDS011;46274;47.168;27.604;2022-09-17T18:36:11;3.63;;;2.40;;
60426;SDS011;46274;47.168;27.604;2022-09-17T18:42:14;3.87;;;2.60;;
60426;SDS011;46274;47.168;27.604;2022-09-17T18:48:16;2.83;;;1.83;;
60426;SDS011;46274;47.168;27.604;2022-09-17T18:54:18;3.80;;;2.27;;
60426;SDS011;46274;47.168;27.604;2022-09-17T19:00:20;2.43;;;1.70;;
60426;SDS011;46274;47.168;27.604;2022-09-17T19:06:23;4.20;;;2.50;;
60426;SDS011;46274;47.168;27.604;2022-09-17T19:12:25;3.67;;;2.60;;
60426;SDS011;46274;47.168;27.604;2022-09-17T19:18:27;2.57;;;1.70;;
60426;SDS011;46274;47.168;27.604;2022-09-17T19:24:29;3.17;;;2.03;;
60426;SDS011;46274;47.168;27.604;2022-09-17T19:30:31;2.63;;;1.80;;
60426;SDS011;46274;47.168;27.604;2022-09-17T19:36:36;3.27;;;1.83;;
60426;SDS011;46274;47.168;27.604;2022-09-17T19:42:38;5.47;;;1.93;;
60426;SDS011;46274;47.168;27.604;2022-09-17T19:48:46;2.70;;;1.87;;
60426;SDS011;46274;47.168;27.604;2022-09-17T19:54:52;3.50;;;2.20;;
60426;SDS011;46274;47.168;27.604;2022-09-17T20:00:56;6.40;;;1.97;;
60426;SDS011;46274;47.168;27.604;2022-09-17T20:06:59;2.87;;;1.90;;
60426;SDS011;46274;47.168;27.604;2022-09-17T20:13:04;4.43;;;2.33;;
60426;SDS011;46274;47.168;27.604;2022-09-17T20:19:06;3.70;;;2.40;;
60426;SDS011;46274;47.168;27.604;2022-09-17T20:25:08;3.90;;;2.43;;
60426;SDS011;46274;47.168;27.604;2022-09-17T20:31:14;4.43;;;2.10;;
60426;SDS011;46274;47.168;27.604;2022-09-17T20:37:17;2.90;;;2.17;;
60426;SDS011;46274;47.168;27.604;2022-09-17T20:43:40;4.23;;;2.77;;
60426;SDS011;46274;47.168;27.604;2022-09-17T20:49:43;3.33;;;2.20;;
60426;SDS011;46274;47.168;27.604;2022-09-17T20:55:52;2.53;;;1.83;;
60426;SDS011;46274;47.168;27.604;2022-09-17T21:01:57;4.40;;;2.20;;
60426;SDS011;46274;47.168;27.604;2022-09-17T21:07:59;2.93;;;2.03;;
60426;SDS011;46274;47.168;27.604;2022-09-17T21:14:01;5.43;;;1.83;;
60426;SDS011;46274;47.168;27.604;2022-09-17T21:20:04;3.47;;;2.30;;
60426;SDS011;46274;47.168;27.604;2022-09-17T21:26:20;3.60;;;2.13;;
60426;SDS011;46274;47.168;27.604;2022-09-17T21:32:23;3.43;;;2.43;;
60426;SDS011;46274;47.168;27.604;2022-09-17T21:38:25;3.30;;;2.30;;
60426;SDS011;46274;47.168;27.604;2022-09-17T21:44:27;3.27;;;2.17;;
60426;SDS011;46274;47.168;27.604;2022-09-17T21:50:30;3.57;;;2.13;;
60426;SDS011;46274;47.168;27.604;2022-09-17T21:56:32;4.13;;;2.40;;
60426;SDS011;46274;47.168;27.604;2022-09-17T22:02:34;3.17;;;2.17;;
60426;SDS011;46274;47.168;27.604;2022-09-17T22:08:37;3.10;;;2.30;;
60426;SDS011;46274;47.168;27.604;2022-09-17T22:14:39;3.20;;;2.20;;
60426;SDS011;46274;47.168;27.604;2022-09-17T22:20:41;5.10;;;3.00;;
60426;SDS011;46274;47.168;27.604;2022-09-17T22:26:44;3.50;;;2.47;;
60426;SDS011;46274;47.168;27.604;2022-09-17T22:32:47;5.03;;;2.67;;
60426;SDS011;46274;47.168;27.604;2022-09-17T22:38:53;4.53;;;2.83;;
60426;SDS011;46274;47.168;27.604;2022-09-17T22:44:56;4.17;;;2.80;;
60426;SDS011;46274;47.168;27.604;2022-09-17T22:50:58;3.80;;;2.60;;
60426;SDS011;46274;47.168;27.604;2022-09-17T22:57:00;5.63;;;2.90;;
60426;SDS011;46274;47.168;27.604;2022-09-17T23:03:01;4.37;;;3.03;;
60426;SDS011;46274;47.168;27.604;2022-09-17T23:09:03;3.93;;;3.23;;
60426;SDS011;46274;47.168;27.604;2022-09-17T23:15:06;5.00;;;3.40;;
60426;SDS011;46274;47.168;27.604;2022-09-17T23:21:09;4.13;;;3.00;;
60426;SDS011;46274;47.168;27.604;2022-09-17T23:27:13;5.50;;;3.53;;
60426;SDS011;46274;47.168;27.604;2022-09-17T23:33:15;6.37;;;3.90;;
60426;SDS011;46274;47.168;27.604;2022-09-17T23:39:17;4.70;;;3.20;;
60426;SDS011;46274;47.168;27.604;2022-09-17T23:45:19;6.47;;;4.47;;
60426;SDS011;46274;47.168;27.604;2022-09-17T23:51:22;6.57;;;4.53;;
60426;SDS011;46274;47.168;27.604;2022-09-17T23:57:25;5.30;;;3.90;;
